sensor_id;sensor_type;location;lat;lon;timestamp;pressure;altitude;pressure_sealevel;temperature;humidity
75895;BME280;64573;50.328;15.014;2023-05-08T00:00:00;99722.50;;;5.39;72.09
75895;BME280;64573;50.328;15.014;2023-05-08T00:02:29;99718.53;;;5.34;72.81
75895;BME280;64573;50.328;15.014;2023-05-08T00:04:55;99712.00;;;5.38;72.39
75895;BME280;64573;50.328;15.014;2023-05-08T00:07:20;99711.53;;;5.33;72.33
75895;BME280;64573;50.328;15.014;2023-05-08T00:09:46;99714.28;;;5.21;73.06
75895;BME280;64573;50.328;15.014;2023-05-08T00:12:11;99718.00;;;5.19;73.23
75895;BME280;64573;50.328;15.014;2023-05-08T00:14:36;99710.22;;;5.27;73.11
75895;BME280;64573;50.328;15.014;2023-05-08T00:17:02;99714.50;;;5.18;73.37
75895;BME280;64573;50.328;15.014;2023-05-08T00:19:27;99706.06;;;5.13;73.71
75895;BME280;64573;50.328;15.014;2023-05-08T00:21:53;99712.16;;;5.04;74.52
75895;BME280;64573;50.328;15.014;2023-05-08T00:24:18;99710.00;;;4.98;74.09
75895;BME280;64573;50.328;15.014;2023-05-08T00:26:43;99698.94;;;5.14;73.49
75895;BME280;64573;50.328;15.014;2023-05-08T00:29:10;99712.75;;;5.08;74.04
75895;BME280;64573;50.328;15.014;2023-05-08T00:31:35;99707.56;;;5.06;74.03
75895;BME280;64573;50.328;15.014;2023-05-08T00:34:00;99710.06;;;4.87;74.69
75895;BME280;64573;50.328;15.014;2023-05-08T00:36:26;99700.50;;;4.95;74.84
75895;BME280;64573;50.328;15.014;2023-05-08T00:38:51;99699.38;;;4.98;74.65
75895;BME280;64573;50.328;15.014;2023-05-08T00:41:17;99696.84;;;4.96;74.73
75895;BME280;64573;50.328;15.014;2023-05-08T00:43:42;99708.47;;;4.95;74.77
75895;BME280;64573;50.328;15.014;2023-05-08T00:46:07;99706.09;;;4.81;75.15
75895;BME280;64573;50.328;15.014;2023-05-08T00:48:36;99703.31;;;4.83;75.47
75895;BME280;64573;50.328;15.014;2023-05-08T00:51:05;99702.16;;;4.96;75.27
75895;BME280;64573;50.328;15.014;2023-05-08T00:53:32;99702.88;;;4.98;75.37
75895;BME280;64573;50.328;15.014;2023-05-08T00:55:59;99708.59;;;4.94;75.67
75895;BME280;64573;50.328;15.014;2023-05-08T00:58:26;99707.09;;;4.80;76.21
75895;BME280;64573;50.328;15.014;2023-05-08T01:00:52;99707.09;;;4.80;75.91
75895;BME280;64573;50.328;15.014;2023-05-08T01:03:20;99711.56;;;4.80;76.19
75895;BME280;64573;50.328;15.014;2023-05-08T01:05:47;99716.41;;;4.75;76.86
75895;BME280;64573;50.328;15.014;2023-05-08T01:08:12;99725.56;;;4.70;77.01
75895;BME280;64573;50.328;15.014;2023-05-08T01:13:53;99724.56;;;4.39;78.38
75895;BME280;64573;50.328;15.014;2023-05-08T01:16:31;99716.47;;;4.41;78.29
75895;BME280;64573;50.328;15.014;2023-05-08T01:19:25;99720.25;;;4.27;79.02
75895;BME280;64573;50.328;15.014;2023-05-08T01:27:24;99733.31;;;4.08;79.66
75895;BME280;64573;50.328;15.014;2023-05-08T01:32:35;99729.06;;;3.83;81.05
75895;BME280;64573;50.328;15.014;2023-05-08T01:40:08;99714.72;;;3.97;80.84
75895;BME280;64573;50.328;15.014;2023-05-08T01:42:42;99728.00;;;3.97;80.47
75895;BME280;64573;50.328;15.014;2023-05-08T01:45:19;99735.13;;;3.96;80.50
75895;BME280;64573;50.328;15.014;2023-05-08T01:47:50;99732.59;;;3.95;80.94
75895;BME280;64573;50.328;15.014;2023-05-08T01:50:24;99729.56;;;3.77;81.28
75895;BME280;64573;50.328;15.014;2023-05-08T01:53:17;99729.53;;;3.54;81.63
75895;BME280;64573;50.328;15.014;2023-05-08T01:55:46;99732.50;;;3.39;83.00
75895;BME280;64573;50.328;15.014;2023-05-08T01:58:13;99726.13;;;3.30;83.18
75895;BME280;64573;50.328;15.014;2023-05-08T02:00:40;99724.09;;;3.34;83.40
75895;BME280;64573;50.328;15.014;2023-05-08T02:03:07;99719.72;;;3.21;83.73
75895;BME280;64573;50.328;15.014;2023-05-08T02:05:36;99723.00;;;3.01;84.60
75895;BME280;64573;50.328;15.014;2023-05-08T02:08:02;99730.31;;;2.86;85.33
75895;BME280;64573;50.328;15.014;2023-05-08T02:10:29;99729.22;;;2.89;85.66
75895;BME280;64573;50.328;15.014;2023-05-08T02:12:55;99721.91;;;2.92;85.41
75895;BME280;64573;50.328;15.014;2023-05-08T02:15:21;99722.09;;;2.78;85.69
75895;BME280;64573;50.328;15.014;2023-05-08T02:17:49;99724.63;;;2.80;85.73
75895;BME280;64573;50.328;15.014;2023-05-08T02:20:17;99726.69;;;2.87;86.31
75895;BME280;64573;50.328;15.014;2023-05-08T02:22:44;99727.13;;;2.81;86.33
75895;BME280;64573;50.328;15.014;2023-05-08T02:25:14;99716.06;;;2.76;86.46
75895;BME280;64573;50.328;15.014;2023-05-08T02:27:45;99724.91;;;2.64;86.66
75895;BME280;64573;50.328;15.014;2023-05-08T02:30:12;99725.78;;;2.52;87.35
75895;BME280;64573;50.328;15.014;2023-05-08T02:32:43;99721.06;;;2.44;87.72
75895;BME280;64573;50.328;15.014;2023-05-08T02:35:15;99725.34;;;2.34;88.35
75895;BME280;64573;50.328;15.014;2023-05-08T02:37:52;99725.22;;;2.35;88.58
75895;BME280;64573;50.328;15.014;2023-05-08T02:40:19;99718.56;;;2.30;88.87
75895;BME280;64573;50.328;15.014;2023-05-08T02:42:46;99727.16;;;2.33;88.88
75895;BME280;64573;50.328;15.014;2023-05-08T02:45:13;99728.09;;;2.32;88.75
75895;BME280;64573;50.328;15.014;2023-05-08T02:47:42;99723.25;;;2.26;89.04
75895;BME280;64573;50.328;15.014;2023-05-08T02:50:20;99726.44;;;2.18;88.78
75895;BME280;64573;50.328;15.014;2023-05-08T02:52:50;99734.41;;;2.06;89.12
75895;BME280;64573;50.328;15.014;2023-05-08T02:55:39;99731.97;;;2.03;89.60
75895;BME280;64573;50.328;15.014;2023-05-08T03:00:42;99737.06;;;2.06;90.36
75895;BME280;64573;50.328;15.014;2023-05-08T03:03:20;99731.22;;;2.01;90.53
75895;BME280;64573;50.328;15.014;2023-05-08T03:05:50;99728.22;;;1.81;90.61
75895;BME280;64573;50.328;15.014;2023-05-08T03:08:23;99732.31;;;1.85;90.96
75895;BME280;64573;50.328;15.014;2023-05-08T03:10:51;99736.34;;;1.91;90.98
75895;BME280;64573;50.328;15.014;2023-05-08T03:13:18;99730.50;;;1.99;91.13
75895;BME280;64573;50.328;15.014;2023-05-08T03:15:57;99743.72;;;1.99;90.78
75895;BME280;64573;50.328;15.014;2023-05-08T03:18:42;99745.16;;;2.15;90.54
75895;BME280;64573;50.328;15.014;2023-05-08T03:21:12;99742.94;;;2.22;90.17
75895;BME280;64573;50.328;15.014;2023-05-08T03:23:42;99738.47;;;2.22;89.65
75895;BME280;64573;50.328;15.014;2023-05-08T03:26:09;99746.78;;;2.18;90.04
75895;BME280;64573;50.328;15.014;2023-05-08T03:28:36;99741.38;;;2.07;89.32
75895;BME280;64573;50.328;15.014;2023-05-08T03:31:04;99733.84;;;2.13;89.61
75895;BME280;64573;50.328;15.014;2023-05-08T03:33:31;99729.09;;;2.18;89.69
75895;BME280;64573;50.328;15.014;2023-05-08T03:35:58;99736.47;;;2.26;89.54
75895;BME280;64573;50.328;15.014;2023-05-08T03:38:23;99736.94;;;2.07;89.35
75895;BME280;64573;50.328;15.014;2023-05-08T03:40:49;99741.69;;;2.15;89.24
75895;BME280;64573;50.328;15.014;2023-05-08T03:43:15;99735.94;;;2.21;88.96
75895;BME280;64573;50.328;15.014;2023-05-08T03:45:42;99738.78;;;2.31;89.14
75895;BME280;64573;50.328;15.014;2023-05-08T03:48:08;99738.56;;;2.34;88.68
75895;BME280;64573;50.328;15.014;2023-05-08T03:50:36;99735.22;;;2.56;88.01
75895;BME280;64573;50.328;15.014;2023-05-08T03:53:01;99753.22;;;2.74;87.09
75895;BME280;64573;50.328;15.014;2023-05-08T03:55:29;99740.56;;;2.91;86.19
75895;BME280;64573;50.328;15.014;2023-05-08T03:58:09;99754.13;;;3.10;85.44
75895;BME280;64573;50.328;15.014;2023-05-08T04:04:01;99747.00;;;3.46;83.48
75895;BME280;64573;50.328;15.014;2023-05-08T04:06:39;99748.25;;;3.64;83.16
75895;BME280;64573;50.328;15.014;2023-05-08T04:09:19;99756.94;;;3.88;81.89
75895;BME280;64573;50.328;15.014;2023-05-08T04:12:14;99755.63;;;3.94;81.29
75895;BME280;64573;50.328;15.014;2023-05-08T04:14:46;99761.16;;;4.25;79.89
75895;BME280;64573;50.328;15.014;2023-05-08T04:17:14;99765.38;;;4.38;79.64
75895;BME280;64573;50.328;15.014;2023-05-08T04:19:45;99767.56;;;4.22;79.92
75895;BME280;64573;50.328;15.014;2023-05-08T04:22:11;99765.13;;;4.41;79.01
75895;BME280;64573;50.328;15.014;2023-05-08T04:24:42;99767.38;;;4.68;78.37
75895;BME280;64573;50.328;15.014;2023-05-08T04:27:08;99770.38;;;4.75;77.90
75895;BME280;64573;50.328;15.014;2023-05-08T04:29:34;99775.72;;;5.07;76.97
75895;BME280;64573;50.328;15.014;2023-05-08T04:32:00;99771.50;;;5.37;75.69
75895;BME280;64573;50.328;15.014;2023-05-08T04:34:27;99779.81;;;5.43;75.11
75895;BME280;64573;50.328;15.014;2023-05-08T04:36:53;99780.75;;;5.42;74.46
75895;BME280;64573;50.328;15.014;2023-05-08T04:39:18;99786.25;;;5.71;73.30
75895;BME280;64573;50.328;15.014;2023-05-08T04:41:44;99786.47;;;5.79;72.94
75895;BME280;64573;50.328;15.014;2023-05-08T04:44:09;99787.72;;;5.96;72.00
75895;BME280;64573;50.328;15.014;2023-05-08T04:46:35;99797.31;;;6.08;70.84
75895;BME280;64573;50.328;15.014;2023-05-08T04:49:01;99801.44;;;6.22;70.07
75895;BME280;64573;50.328;15.014;2023-05-08T04:51:26;99805.31;;;6.39;69.58
75895;BME280;64573;50.328;15.014;2023-05-08T04:53:51;99806.69;;;6.33;69.37
75895;BME280;64573;50.328;15.014;2023-05-08T04:56:17;99809.28;;;6.54;69.45
75895;BME280;64573;50.328;15.014;2023-05-08T04:58:43;99813.72;;;6.94;67.38
75895;BME280;64573;50.328;15.014;2023-05-08T05:01:08;99807.75;;;6.61;67.76
75895;BME280;64573;50.328;15.014;2023-05-08T05:03:34;99811.19;;;6.83;67.71
75895;BME280;64573;50.328;15.014;2023-05-08T05:06:00;99815.81;;;6.81;66.51
75895;BME280;64573;50.328;15.014;2023-05-08T05:08:26;99817.06;;;6.86;66.92
75895;BME280;64573;50.328;15.014;2023-05-08T05:10:51;99817.00;;;7.17;66.12
75895;BME280;64573;50.328;15.014;2023-05-08T05:13:17;99820.63;;;6.97;65.59
75895;BME280;64573;50.328;15.014;2023-05-08T05:15:42;99813.75;;;7.13;65.94
75895;BME280;64573;50.328;15.014;2023-05-08T05:18:08;99799.19;;;7.17;64.78
75895;BME280;64573;50.328;15.014;2023-05-08T05:20:33;99810.78;;;6.97;64.85
75895;BME280;64573;50.328;15.014;2023-05-08T05:22:58;99810.38;;;7.31;64.97
75895;BME280;64573;50.328;15.014;2023-05-08T05:25:24;99816.16;;;7.26;64.54
75895;BME280;64573;50.328;15.014;2023-05-08T05:27:49;99820.78;;;7.24;65.05
75895;BME280;64573;50.328;15.014;2023-05-08T05:30:15;99822.34;;;7.27;65.04
75895;BME280;64573;50.328;15.014;2023-05-08T05:32:40;99821.06;;;7.21;65.59
75895;BME280;64573;50.328;15.014;2023-05-08T05:35:06;99820.34;;;7.77;64.08
75895;BME280;64573;50.328;15.014;2023-05-08T05:37:31;99820.22;;;7.69;62.98
75895;BME280;64573;50.328;15.014;2023-05-08T05:39:57;99827.66;;;7.65;62.29
75895;BME280;64573;50.328;15.014;2023-05-08T05:42:22;99819.31;;;8.07;61.70
75895;BME280;64573;50.328;15.014;2023-05-08T05:44:47;99834.13;;;8.48;59.94
75895;BME280;64573;50.328;15.014;2023-05-08T05:47:13;99821.53;;;8.59;58.46
75895;BME280;64573;50.328;15.014;2023-05-08T05:49:38;99825.28;;;8.38;59.97
75895;BME280;64573;50.328;15.014;2023-05-08T05:52:07;99830.34;;;8.32;59.50
75895;BME280;64573;50.328;15.014;2023-05-08T05:54:32;99838.25;;;8.70;59.80
75895;BME280;64573;50.328;15.014;2023-05-08T05:56:57;99835.66;;;8.78;58.42
75895;BME280;64573;50.328;15.014;2023-05-08T05:59:23;99834.06;;;9.31;56.52
75895;BME280;64573;50.328;15.014;2023-05-08T06:01:48;99832.44;;;10.17;54.05
75895;BME280;64573;50.328;15.014;2023-05-08T06:04:13;99833.56;;;10.67;52.78
75895;BME280;64573;50.328;15.014;2023-05-08T06:06:39;99841.13;;;10.37;51.79
75895;BME280;64573;50.328;15.014;2023-05-08T06:09:04;99832.72;;;10.32;51.84
75895;BME280;64573;50.328;15.014;2023-05-08T06:11:31;99842.41;;;9.28;54.44
75895;BME280;64573;50.328;15.014;2023-05-08T06:13:56;99837.91;;;9.64;55.28
75895;BME280;64573;50.328;15.014;2023-05-08T06:16:22;99835.91;;;10.10;52.64
75895;BME280;64573;50.328;15.014;2023-05-08T06:18:49;99843.28;;;10.34;52.68
75895;BME280;64573;50.328;15.014;2023-05-08T06:21:14;99836.78;;;10.36;52.24
75895;BME280;64573;50.328;15.014;2023-05-08T06:23:40;99831.13;;;10.47;50.59
75895;BME280;64573;50.328;15.014;2023-05-08T06:26:06;99826.53;;;10.32;53.59
75895;BME280;64573;50.328;15.014;2023-05-08T06:28:32;99832.13;;;11.39;50.59
75895;BME280;64573;50.328;15.014;2023-05-08T06:30:57;99827.22;;;10.16;51.95
75895;BME280;64573;50.328;15.014;2023-05-08T06:33:22;99839.03;;;10.57;52.68
75895;BME280;64573;50.328;15.014;2023-05-08T06:35:48;99833.19;;;10.28;52.67
75895;BME280;64573;50.328;15.014;2023-05-08T06:38:14;99836.63;;;10.20;53.26
75895;BME280;64573;50.328;15.014;2023-05-08T06:40:43;99835.47;;;10.83;51.33
75895;BME280;64573;50.328;15.014;2023-05-08T06:43:09;99829.47;;;12.12;48.15
75895;BME280;64573;50.328;15.014;2023-05-08T06:45:35;99831.91;;;12.47;46.93
75895;BME280;64573;50.328;15.014;2023-05-08T06:48:00;99827.31;;;12.63;46.12
75895;BME280;64573;50.328;15.014;2023-05-08T06:50:25;99831.88;;;12.94;46.14
75895;BME280;64573;50.328;15.014;2023-05-08T06:52:51;99827.16;;;12.96;45.98
75895;BME280;64573;50.328;15.014;2023-05-08T06:55:16;99836.34;;;12.15;47.16
75895;BME280;64573;50.328;15.014;2023-05-08T06:57:42;99832.31;;;12.11;47.10
75895;BME280;64573;50.328;15.014;2023-05-08T07:00:08;99840.19;;;12.84;45.63
75895;BME280;64573;50.328;15.014;2023-05-08T07:02:33;99833.19;;;11.95;47.31
75895;BME280;64573;50.328;15.014;2023-05-08T07:04:59;99837.69;;;11.78;48.67
75895;BME280;64573;50.328;15.014;2023-05-08T07:07:24;99823.59;;;11.93;47.17
75895;BME280;64573;50.328;15.014;2023-05-08T07:09:49;99837.31;;;11.57;48.43
75895;BME280;64573;50.328;15.014;2023-05-08T07:12:15;99823.06;;;12.13;47.26
75895;BME280;64573;50.328;15.014;2023-05-08T07:14:41;99835.94;;;11.28;49.81
75895;BME280;64573;50.328;15.014;2023-05-08T07:17:07;99835.66;;;11.56;49.17
75895;BME280;64573;50.328;15.014;2023-05-08T07:19:36;99833.81;;;11.73;49.91
75895;BME280;64573;50.328;15.014;2023-05-08T07:22:03;99830.75;;;13.19;46.70
75895;BME280;64573;50.328;15.014;2023-05-08T07:24:29;99824.91;;;12.77;44.90
75895;BME280;64573;50.328;15.014;2023-05-08T07:26:54;99826.94;;;12.19;46.74
75895;BME280;64573;50.328;15.014;2023-05-08T07:29:20;99828.84;;;13.97;44.31
75895;BME280;64573;50.328;15.014;2023-05-08T07:31:45;99821.00;;;15.35;41.57
75895;BME280;64573;50.328;15.014;2023-05-08T07:34:12;99823.25;;;15.67;40.44
75895;BME280;64573;50.328;15.014;2023-05-08T07:36:38;99821.59;;;13.60;45.47
75895;BME280;64573;50.328;15.014;2023-05-08T07:39:04;99812.47;;;13.84;43.57
75895;BME280;64573;50.328;15.014;2023-05-08T07:41:29;99811.28;;;14.01;45.12
75895;BME280;64573;50.328;15.014;2023-05-08T07:43:55;99820.00;;;13.88;43.18
75895;BME280;64573;50.328;15.014;2023-05-08T07:46:20;99819.28;;;14.61;41.44
75895;BME280;64573;50.328;15.014;2023-05-08T07:48:46;99829.34;;;14.53;42.52
75895;BME280;64573;50.328;15.014;2023-05-08T07:51:12;99824.97;;;15.17;41.19
75895;BME280;64573;50.328;15.014;2023-05-08T07:53:38;99822.66;;;14.11;41.38
75895;BME280;64573;50.328;15.014;2023-05-08T07:56:03;99817.84;;;12.76;45.02
75895;BME280;64573;50.328;15.014;2023-05-08T07:58:29;99818.09;;;13.28;43.79
75895;BME280;64573;50.328;15.014;2023-05-08T08:00:55;99820.84;;;13.89;43.59
75895;BME280;64573;50.328;15.014;2023-05-08T08:03:20;99815.84;;;15.18;39.54
75895;BME280;64573;50.328;15.014;2023-05-08T08:05:46;99817.34;;;16.07;38.39
75895;BME280;64573;50.328;15.014;2023-05-08T08:08:11;99825.19;;;15.74;39.54
75895;BME280;64573;50.328;15.014;2023-05-08T08:10:36;99815.81;;;16.53;37.85
75895;BME280;64573;50.328;15.014;2023-05-08T08:13:02;99818.66;;;16.45;38.66
75895;BME280;64573;50.328;15.014;2023-05-08T08:15:27;99829.88;;;15.86;36.94
75895;BME280;64573;50.328;15.014;2023-05-08T08:17:53;99819.03;;;15.22;38.22
75895;BME280;64573;50.328;15.014;2023-05-08T08:20:19;99812.53;;;15.38;38.87
75895;BME280;64573;50.328;15.014;2023-05-08T08:22:44;99812.78;;;14.03;41.00
75895;BME280;64573;50.328;15.014;2023-05-08T08:25:09;99819.31;;;15.12;40.15
75895;BME280;64573;50.328;15.014;2023-05-08T08:27:35;99815.66;;;15.41;38.09
75895;BME280;64573;50.328;15.014;2023-05-08T08:30:00;99806.84;;;14.97;39.82
75895;BME280;64573;50.328;15.014;2023-05-08T08:32:26;99810.38;;;15.69;40.00
75895;BME280;64573;50.328;15.014;2023-05-08T08:34:51;99806.88;;;16.60;36.81
75895;BME280;64573;50.328;15.014;2023-05-08T08:37:16;99805.25;;;17.13;34.97
75895;BME280;64573;50.328;15.014;2023-05-08T08:39:42;99810.22;;;15.78;38.29
75895;BME280;64573;50.328;15.014;2023-05-08T08:42:07;99809.50;;;14.46;41.30
75895;BME280;64573;50.328;15.014;2023-05-08T08:44:33;99820.31;;;16.12;38.32
75895;BME280;64573;50.328;15.014;2023-05-08T08:46:59;99809.09;;;16.49;36.15
75895;BME280;64573;50.328;15.014;2023-05-08T08:49:30;99806.47;;;17.98;35.01
75895;BME280;64573;50.328;15.014;2023-05-08T08:52:01;99813.56;;;16.01;36.07
75895;BME280;64573;50.328;15.014;2023-05-08T08:54:29;99812.28;;;16.25;35.82
75895;BME280;64573;50.328;15.014;2023-05-08T08:57:00;99815.81;;;16.53;36.90
75895;BME280;64573;50.328;15.014;2023-05-08T08:59:28;99802.03;;;17.51;34.40
75895;BME280;64573;50.328;15.014;2023-05-08T09:01:57;99801.25;;;17.83;33.92
75895;BME280;64573;50.328;15.014;2023-05-08T09:04:23;99810.66;;;17.06;34.59
75895;BME280;64573;50.328;15.014;2023-05-08T09:06:52;99813.41;;;16.09;36.89
75895;BME280;64573;50.328;15.014;2023-05-08T09:09:17;99813.72;;;17.58;33.74
75895;BME280;64573;50.328;15.014;2023-05-08T09:11:45;99792.91;;;17.91;33.05
75895;BME280;64573;50.328;15.014;2023-05-08T09:14:10;99799.72;;;17.41;34.27
75895;BME280;64573;50.328;15.014;2023-05-08T09:16:36;99797.28;;;17.92;33.18
75895;BME280;64573;50.328;15.014;2023-05-08T09:19:02;99798.13;;;18.19;32.50
75895;BME280;64573;50.328;15.014;2023-05-08T09:21:28;99793.50;;;17.60;32.97
75895;BME280;64573;50.328;15.014;2023-05-08T09:23:58;99791.94;;;17.18;32.04
75895;BME280;64573;50.328;15.014;2023-05-08T09:26:31;99784.94;;;17.57;32.09
75895;BME280;64573;50.328;15.014;2023-05-08T09:29:17;99785.28;;;18.66;32.15
75895;BME280;64573;50.328;15.014;2023-05-08T09:31:50;99800.84;;;18.06;32.99
75895;BME280;64573;50.328;15.014;2023-05-08T09:34:28;99789.63;;;19.25;30.30
75895;BME280;64573;50.328;15.014;2023-05-08T09:37:14;99789.84;;;17.14;32.87
75895;BME280;64573;50.328;15.014;2023-05-08T09:39:40;99797.38;;;17.18;32.86
75895;BME280;64573;50.328;15.014;2023-05-08T09:42:05;99793.69;;;18.38;29.77
75895;BME280;64573;50.328;15.014;2023-05-08T09:47:14;99791.66;;;18.07;30.92
75895;BME280;64573;50.328;15.014;2023-05-08T09:50:03;99793.91;;;16.48;31.97
75895;BME280;64573;50.328;15.014;2023-05-08T09:52:30;99795.91;;;16.05;33.75
75895;BME280;64573;50.328;15.014;2023-05-08T09:55:07;99790.88;;;16.02;35.21
75895;BME280;64573;50.328;15.014;2023-05-08T09:57:35;99791.25;;;17.97;32.05
75895;BME280;64573;50.328;15.014;2023-05-08T10:00:11;99780.94;;;19.10;29.60
75895;BME280;64573;50.328;15.014;2023-05-08T10:02:41;99782.66;;;17.80;32.59
75895;BME280;64573;50.328;15.014;2023-05-08T10:05:26;99781.13;;;18.57;29.98
75895;BME280;64573;50.328;15.014;2023-05-08T10:07:52;99781.38;;;18.42;30.13
75895;BME280;64573;50.328;15.014;2023-05-08T10:10:26;99786.81;;;18.23;30.71
75895;BME280;64573;50.328;15.014;2023-05-08T10:12:55;99786.38;;;16.78;31.23
75895;BME280;64573;50.328;15.014;2023-05-08T10:15:27;99786.22;;;16.93;32.11
75895;BME280;64573;50.328;15.014;2023-05-08T10:18:03;99778.16;;;16.65;32.34
75895;BME280;64573;50.328;15.014;2023-05-08T10:20:33;99779.34;;;17.91;31.30
75895;BME280;64573;50.328;15.014;2023-05-08T10:23:00;99775.97;;;19.00;29.39
75895;BME280;64573;50.328;15.014;2023-05-08T10:25:31;99775.53;;;19.42;28.12
75895;BME280;64573;50.328;15.014;2023-05-08T10:28:32;99782.63;;;19.74;29.20
75895;BME280;64573;50.328;15.014;2023-05-08T10:31:02;99777.84;;;19.38;27.41
75895;BME280;64573;50.328;15.014;2023-05-08T10:33:30;99779.88;;;17.34;30.88
75895;BME280;64573;50.328;15.014;2023-05-08T10:35:55;99767.56;;;18.44;31.51
75895;BME280;64573;50.328;15.014;2023-05-08T10:38:22;99755.28;;;18.99;28.21
75895;BME280;64573;50.328;15.014;2023-05-08T10:40:49;99767.75;;;19.77;29.77
75895;BME280;64573;50.328;15.014;2023-05-08T10:43:18;99769.63;;;17.09;31.21
75895;BME280;64573;50.328;15.014;2023-05-08T10:45:43;99764.47;;;18.34;30.58
75895;BME280;64573;50.328;15.014;2023-05-08T10:51:01;99763.97;;;18.63;29.43
75895;BME280;64573;50.328;15.014;2023-05-08T10:53:38;99764.84;;;19.40;28.82
75895;BME280;64573;50.328;15.014;2023-05-08T10:56:04;99761.84;;;20.30;28.45
75895;BME280;64573;50.328;15.014;2023-05-08T10:58:35;99763.97;;;18.57;31.18
75895;BME280;64573;50.328;15.014;2023-05-08T11:03:41;99761.97;;;17.40;29.84
75895;BME280;64573;50.328;15.014;2023-05-08T11:06:07;99759.75;;;16.89;31.68
75895;BME280;64573;50.328;15.014;2023-05-08T11:08:42;99751.69;;;17.22;30.63
75895;BME280;64573;50.328;15.014;2023-05-08T11:11:19;99756.13;;;17.49;30.62
75895;BME280;64573;50.328;15.014;2023-05-08T11:13:50;99744.66;;;18.13;30.00
75895;BME280;64573;50.328;15.014;2023-05-08T11:16:17;99743.53;;;19.37;28.99
75895;BME280;64573;50.328;15.014;2023-05-08T11:19:17;99744.16;;;19.71;26.74
75895;BME280;64573;50.328;15.014;2023-05-08T11:24:51;99749.03;;;18.92;29.58
75895;BME280;64573;50.328;15.014;2023-05-08T11:27:16;99743.88;;;19.47;28.23
75895;BME280;64573;50.328;15.014;2023-05-08T11:29:42;99744.72;;;18.65;29.80
75895;BME280;64573;50.328;15.014;2023-05-08T11:32:09;99751.78;;;19.55;29.51
75895;BME280;64573;50.328;15.014;2023-05-08T11:37:19;99744.59;;;19.36;28.67
75895;BME280;64573;50.328;15.014;2023-05-08T11:39:49;99738.94;;;17.09;32.17
75895;BME280;64573;50.328;15.014;2023-05-08T11:45:02;99720.84;;;18.22;30.41
75895;BME280;64573;50.328;15.014;2023-05-08T11:47:40;99737.59;;;19.15;28.76
75895;BME280;64573;50.328;15.014;2023-05-08T11:50:10;99730.16;;;18.46;29.60
75895;BME280;64573;50.328;15.014;2023-05-08T11:52:37;99723.97;;;18.90;30.60
75895;BME280;64573;50.328;15.014;2023-05-08T11:55:04;99707.88;;;21.05;26.98
75895;BME280;64573;50.328;15.014;2023-05-08T11:57:30;99722.06;;;21.26;26.12
75895;BME280;64573;50.328;15.014;2023-05-08T12:00:05;99719.41;;;20.59;26.30
75895;BME280;64573;50.328;15.014;2023-05-08T12:02:39;99713.47;;;21.40;26.15
75895;BME280;64573;50.328;15.014;2023-05-08T12:05:05;99719.91;;;19.06;28.80
75895;BME280;64573;50.328;15.014;2023-05-08T12:07:31;99713.47;;;18.94;31.00
75895;BME280;64573;50.328;15.014;2023-05-08T12:09:59;99717.44;;;19.29;29.77
75895;BME280;64573;50.328;15.014;2023-05-08T12:12:37;99712.78;;;21.45;26.33
75895;BME280;64573;50.328;15.014;2023-05-08T12:15:13;99707.78;;;20.08;28.41
75895;BME280;64573;50.328;15.014;2023-05-08T12:17:39;99709.75;;;19.51;29.28
75895;BME280;64573;50.328;15.014;2023-05-08T12:20:31;99719.66;;;18.69;29.34
75895;BME280;64573;50.328;15.014;2023-05-08T12:22:56;99713.22;;;19.34;28.69
75895;BME280;64573;50.328;15.014;2023-05-08T12:25:24;99724.88;;;19.09;29.43
75895;BME280;64573;50.328;15.014;2023-05-08T12:27:49;99710.03;;;19.43;29.06
75895;BME280;64573;50.328;15.014;2023-05-08T12:30:15;99717.81;;;18.57;30.68
75895;BME280;64573;50.328;15.014;2023-05-08T12:32:51;99719.00;;;17.70;30.79
75895;BME280;64573;50.328;15.014;2023-05-08T12:35:16;99718.78;;;17.58;30.78
75895;BME280;64573;50.328;15.014;2023-05-08T12:37:43;99713.19;;;19.09;29.07
75895;BME280;64573;50.328;15.014;2023-05-08T12:40:23;99708.38;;;21.14;26.82
75895;BME280;64573;50.328;15.014;2023-05-08T12:42:50;99714.06;;;21.01;26.39
75895;BME280;64573;50.328;15.014;2023-05-08T12:45:28;99706.88;;;20.88;27.43
75895;BME280;64573;50.328;15.014;2023-05-08T12:47:58;99706.69;;;19.41;28.94
75895;BME280;64573;50.328;15.014;2023-05-08T12:50:24;99705.28;;;19.00;29.69
75895;BME280;64573;50.328;15.014;2023-05-08T12:52:50;99697.72;;;17.73;32.14
75895;BME280;64573;50.328;15.014;2023-05-08T12:55:24;99697.91;;;18.11;31.20
75895;BME280;64573;50.328;15.014;2023-05-08T12:58:00;99694.34;;;18.11;30.79
75895;BME280;64573;50.328;15.014;2023-05-08T13:00:45;99693.78;;;19.30;29.56
75895;BME280;64573;50.328;15.014;2023-05-08T13:03:19;99692.41;;;19.96;27.78
75895;BME280;64573;50.328;15.014;2023-05-08T13:05:45;99691.28;;;19.85;27.60
75895;BME280;64573;50.328;15.014;2023-05-08T13:08:11;99692.59;;;19.76;27.59
75895;BME280;64573;50.328;15.014;2023-05-08T13:13:12;99679.69;;;21.11;26.88
75895;BME280;64573;50.328;15.014;2023-05-08T13:15:38;99680.19;;;21.73;25.54
75895;BME280;64573;50.328;15.014;2023-05-08T13:18:03;99688.84;;;21.70;24.97
75895;BME280;64573;50.328;15.014;2023-05-08T13:20:29;99691.84;;;20.97;26.26
75895;BME280;64573;50.328;15.014;2023-05-08T13:22:54;99676.63;;;20.59;25.24
75895;BME280;64573;50.328;15.014;2023-05-08T13:25:20;99689.63;;;19.27;28.45
75895;BME280;64573;50.328;15.014;2023-05-08T13:27:45;99680.13;;;18.73;27.61
75895;BME280;64573;50.328;15.014;2023-05-08T13:30:11;99672.16;;;19.10;27.77
75895;BME280;64573;50.328;15.014;2023-05-08T13:32:37;99684.09;;;18.78;28.50
75895;BME280;64573;50.328;15.014;2023-05-08T13:35:03;99680.84;;;19.57;27.07
75895;BME280;64573;50.328;15.014;2023-05-08T13:37:29;99671.63;;;20.20;27.66
75895;BME280;64573;50.328;15.014;2023-05-08T13:39:54;99671.03;;;20.18;26.69
75895;BME280;64573;50.328;15.014;2023-05-08T13:42:19;99650.84;;;18.76;28.41